Time;durP1;ratioP1;P1;durP2;ratioP2;P2;SDS_P1;SDS_P2;PMS_P1;PMS_P2;Temp;Humidity;BMP_temperature;BMP_pressure;BME280_temperature;BME280_humidity;BME280_pressure;Samples;Min_cycle;Max_cycle;Signal;HPM_P1;HPM_P2
2022/09/07 00:01:07;;;;;;;2.03;1.40;;;24.70;56.80;;;;;;5086981;28;20084;-64
2022/09/07 00:03:33;;;;;;;3.80;1.40;;;24.70;56.90;;;;;;5086273;28;20040;-62
2022/09/07 00:06:05;;;;;;;1.60;1.30;;;24.70;56.90;;;;;;5086601;28;20048;-62
2022/09/07 00:08:30;;;;;;;1.33;1.23;;;24.70;56.90;;;;;;5086627;28;20024;-64
2022/09/07 00:10:59;;;;;;;2.30;1.48;;;24.70;56.80;;;;;;5086541;28;20085;-64
2022/09/07 00:13:27;;;;;;;1.65;1.45;;;24.70;56.90;;;;;;5086504;28;20024;-64
2022/09/07 00:15:52;;;;;;;;;;;24.70;56.90;;;;;;5086864;28;20086;-63
2022/09/07 00:18:18;;;;;;;1.77;1.38;;;24.70;56.90;;;;;;5086396;28;19915;-65
2022/09/07 00:20:44;;;;;;;2.00;1.80;;;24.70;56.90;;;;;;5086360;28;20234;-64
2022/09/07 00:23:10;;;;;;;2.15;1.70;;;24.70;57.00;;;;;;5086262;28;20035;-64
2022/09/07 00:25:39;;;;;;;1.77;1.52;;;24.70;56.90;;;;;;5086256;28;20023;-64
2022/09/07 00:28:06;;;;;;;1.60;1.40;;;24.70;56.90;;;;;;5086228;28;20308;-63
2022/09/07 00:30:33;;;;;;;2.05;1.38;;;24.70;56.90;;;;;;5086148;28;20079;-65
2022/09/07 00:32:59;;;;;;;2.00;1.58;;;24.70;56.90;;;;;;5086117;28;20075;-64
2022/09/07 00:35:25;;;;;;;1.48;1.38;;;24.70;56.90;;;;;;5086097;28;20024;-64
2022/09/07 00:37:52;;;;;;;1.40;1.30;;;24.70;56.90;;;;;;5086095;28;20020;-64
2022/09/07 00:40:18;;;;;;;1.75;1.52;;;24.70;56.90;;;;;;5086016;28;20028;-64
2022/09/07 00:42:44;;;;;;;2.88;1.42;;;24.70;56.90;;;;;;5085863;28;20028;-64
2022/09/07 00:45:20;;;;;;;3.17;1.80;;;24.70;56.90;;;;;;5085917;28;20070;-64
2022/09/07 00:47:58;;;;;;;2.90;1.40;;;24.70;56.90;;;;;;5085931;28;20043;-65
2022/09/07 00:50:34;;;;;;;1.85;1.40;;;24.70;56.90;;;;;;5085861;28;20012;-63
2022/09/07 00:53:10;;;;;;;2.35;1.70;;;24.70;56.90;;;;;;5085761;28;20024;-64
2022/09/07 00:55:38;;;;;;;2.33;1.52;;;24.70;56.90;;;;;;5085405;28;20189;-63
2022/09/07 00:58:05;;;;;;;1.95;1.50;;;24.70;57.00;;;;;;5085711;28;20027;-64
2022/09/07 01:00:32;;;;;;;1.60;1.35;;;24.70;56.90;;;;;;5085663;28;20020;-64
2022/09/07 01:02:59;;;;;;;1.80;1.52;;;24.70;56.90;;;;;;5085468;28;20275;-64
2022/09/07 01:05:33;;;;;;;1.50;1.10;;;24.70;56.90;;;;;;5085591;28;20096;-65
2022/09/07 01:08:00;;;;;;;1.40;1.30;;;24.70;56.90;;;;;;5085522;28;20012;-65
2022/09/07 01:10:31;;;;;;;3.92;1.52;;;24.70;56.80;;;;;;5085479;28;20023;-65
2022/09/07 01:12:58;;;;;;;2.15;1.30;;;24.70;56.90;;;;;;5085446;28;20080;-63
2022/09/07 01:15:50;;;;;;;3.20;1.52;;;24.70;56.90;;;;;;5085367;28;20028;-64
2022/09/07 01:18:40;;;;;;;2.17;1.50;;;24.70;56.90;;;;;;5085000;28;20032;-64
2022/09/07 01:21:20;;;;;;;2.88;1.33;;;24.70;57.00;;;;;;5085243;28;20224;-63
2022/09/07 01:23:49;;;;;;;2.53;1.67;;;24.70;56.90;;;;;;5085120;28;20016;-64
2022/09/07 01:27:04;;;;;;;1.70;1.35;;;24.70;56.90;;;;;;5085117;28;20084;-63
2022/09/07 01:29:54;;;;;;;1.95;1.70;;;24.70;56.90;;;;;;5084994;28;20080;-64
2022/09/07 01:32:38;;;;;;;2.53;1.73;;;24.70;57.00;;;;;;5084981;28;20035;-64
2022/09/07 01:35:15;;;;;;;3.90;1.50;;;24.70;57.00;;;;;;5084925;28;20008;-64
2022/09/07 01:38:06;;;;;;;1.40;1.30;;;24.70;56.90;;;;;;5084922;28;20013;-65
2022/09/07 01:40:52;;;;;;;1.80;1.45;;;24.70;57.00;;;;;;5085137;28;20040;-64
2022/09/07 01:43:34;;;;;;;1.80;1.42;;;24.60;56.90;;;;;;5084617;28;20062;-64
2022/09/07 01:46:04;;;;;;;1.67;1.27;;;24.60;56.90;;;;;;5085023;28;20016;-63
2022/09/07 01:48:32;;;;;;;1.52;1.42;;;24.70;57.00;;;;;;5084720;28;20228;-64
2022/09/07 01:51:00;;;;;;;;;;;24.60;56.90;;;;;;5085051;28;20036;-64
2022/09/07 01:53:37;;;;;;;2.13;1.63;;;24.60;56.90;;;;;;5084606;28;19900;-63
2022/09/07 01:56:26;;;;;;;2.10;1.88;;;24.60;56.90;;;;;;5085124;28;20031;-63
2022/09/07 01:59:22;;;;;;;1.58;1.30;;;24.60;57.10;;;;;;5084244;28;20057;-64
2022/09/07 02:01:55;;;;;;;1.83;1.50;;;24.60;56.90;;;;;;5083857;28;20029;-64
2022/09/07 02:04:26;;;;;;;2.03;1.83;;;24.60;56.90;;;;;;5084141;28;20044;-64
2022/09/07 02:07:12;;;;;;;2.13;1.55;;;24.60;56.90;;;;;;5084224;28;20308;-64
2022/09/07 02:09:52;;;;;;;1.45;1.35;;;24.60;56.90;;;;;;5084076;28;20027;-64
2022/09/07 02:12:27;;;;;;;2.05;1.27;;;24.60;56.90;;;;;;5084243;28;20054;-64
2022/09/07 02:14:58;;;;;;;1.38;1.27;;;24.60;56.90;;;;;;5083083;28;20063;-64
2022/09/07 02:17:32;;;;;;;2.20;1.42;;;24.60;56.90;;;;;;5084141;28;20369;-64
2022/09/07 02:20:08;;;;;;;1.33;1.23;;;24.60;56.90;;;;;;5084407;28;20248;-65
2022/09/07 02:22:40;;;;;;;2.17;1.60;;;24.60;56.90;;;;;;5083900;28;20062;-66
2022/09/07 02:25:07;;;;;;;1.23;1.10;;;24.60;56.90;;;;;;5084294;28;20023;-64
2022/09/07 02:27:44;;;;;;;1.55;1.45;;;24.60;56.90;;;;;;5084237;28;20016;-64
2022/09/07 02:30:10;;;;;;;1.38;1.27;;;24.60;56.90;;;;;;5083951;28;20070;-64
2022/09/07 02:32:36;;;;;;;2.00;1.48;;;24.60;56.90;;;;;;5083851;28;20332;-65
2022/09/07 02:35:02;;;;;;;1.50;1.40;;;24.60;56.90;;;;;;5083839;28;20028;-65
2022/09/07 02:37:29;;;;;;;1.52;1.17;;;24.60;56.90;;;;;;5084059;28;20020;-64
2022/09/07 02:39:55;;;;;;;1.85;1.40;;;24.60;56.90;;;;;;5083790;28;20308;-65
2022/09/07 02:42:20;;;;;;;1.20;1.10;;;24.60;56.90;;;;;;5083672;28;20027;-63
2022/09/07 02:44:47;;;;;;;3.67;1.50;;;24.50;56.80;;;;;;5083748;28;20071;-64
2022/09/07 02:47:24;;;;;;;1.88;1.33;;;24.50;56.80;;;;;;5083703;28;20043;-64
2022/09/07 02:50:20;;;;;;;2.38;1.52;;;24.60;56.90;;;;;;5083650;28;20031;-65
2022/09/07 02:52:51;;;;;;;2.28;1.38;;;24.60;56.90;;;;;;5083907;28;20029;-63
2022/09/07 02:55:54;;;;;;;1.92;1.70;;;24.60;56.90;;;;;;5083621;28;20024;-64
2022/09/07 02:58:33;;;;;;;1.60;1.50;;;24.50;56.90;;;;;;5083555;28;20021;-63
2022/09/07 03:01:05;;;;;;;1.40;1.30;;;24.60;56.90;;;;;;5083514;28;20058;-64
2022/09/07 03:04:06;;;;;;;1.25;1.15;;;24.50;56.90;;;;;;5083275;28;20099;-65
2022/09/07 03:07:01;;;;;;;1.48;1.20;;;24.60;56.90;;;;;;5083505;28;20017;-64
2022/09/07 03:09:31;;;;;;;1.40;1.10;;;24.50;56.90;;;;;;5073108;28;20100;-63
2022/09/07 03:12:00;;;;;;;1.60;1.50;;;24.50;56.90;;;;;;5083499;28;20040;-63
2022/09/07 03:14:29;;;;;;;1.55;1.27;;;24.50;57.00;;;;;;5083405;28;20028;-64
2022/09/07 03:16:56;;;;;;;2.38;1.63;;;24.50;56.90;;;;;;5083374;28;20013;-64
2022/09/07 03:19:21;;;;;;;1.30;1.20;;;24.50;56.90;;;;;;5084936;28;20020;-64
2022/09/07 03:21:47;;;;;;;1.52;1.42;;;24.50;56.90;;;;;;5087540;28;20046;-64
2022/09/07 03:24:13;;;;;;;1.50;1.40;;;24.50;56.90;;;;;;5087369;28;20063;-64
2022/09/07 03:26:50;;;;;;;1.52;1.38;;;24.50;56.90;;;;;;5087395;28;20080;-65
2022/09/07 03:29:17;;;;;;;1.43;1.30;;;24.50;57.00;;;;;;5087458;28;20016;-64
2022/09/07 03:31:43;;;;;;;1.75;1.40;;;24.50;57.00;;;;;;5087353;28;20059;-64
2022/09/07 03:34:09;;;;;;;1.88;1.20;;;24.50;57.00;;;;;;5087287;28;20048;-63
2022/09/07 03:36:35;;;;;;;1.13;1.02;;;24.50;57.00;;;;;;5087212;28;20066;-64
2022/09/07 03:39:02;;;;;;;1.40;1.30;;;24.50;57.00;;;;;;5087195;28;20024;-63
2022/09/07 03:41:27;;;;;;;1.35;1.20;;;24.50;57.00;;;;;;5087142;28;20087;-64
2022/09/07 03:43:54;;;;;;;2.10;1.35;;;24.50;56.90;;;;;;5087003;28;20042;-64
2022/09/07 03:46:20;;;;;;;1.50;1.35;;;24.50;57.00;;;;;;5087026;28;20012;-64
2022/09/07 03:48:47;;;;;;;1.33;1.23;;;24.50;56.90;;;;;;5086989;28;20204;-65
2022/09/07 03:51:15;;;;;;;2.33;1.60;;;24.40;56.90;;;;;;5086957;28;20012;-63
2022/09/07 03:53:43;;;;;;;;;;;24.50;56.90;;;;;;5087313;28;20327;-63
2022/09/07 03:56:10;;;;;;;1.58;1.30;;;24.50;57.00;;;;;;5086864;28;19900;-63
2022/09/07 03:58:37;;;;;;;3.65;1.80;;;24.50;56.90;;;;;;5086782;28;20024;-65
2022/09/07 04:01:09;;;;;;;1.38;1.25;;;24.50;56.90;;;;;;5086712;28;20268;-63
2022/09/07 04:03:36;;;;;;;1.63;1.48;;;24.50;56.90;;;;;;5086223;28;20040;-63
2022/09/07 04:06:02;;;;;;;1.58;1.45;;;24.50;56.90;;;;;;5086623;28;20025;-64
2022/09/07 04:08:30;;;;;;;1.70;1.60;;;24.50;56.90;;;;;;5086635;28;20058;-64
2022/09/07 04:10:57;;;;;;;2.30;1.25;;;24.50;57.00;;;;;;5086538;28;20024;-65
2022/09/07 04:13:24;;;;;;;2.55;1.40;;;24.50;56.90;;;;;;5086533;28;20066;-65
2022/09/07 04:15:51;;;;;;;2.60;1.58;;;24.40;57.00;;;;;;5086467;28;20354;-65
2022/09/07 04:18:16;;;;;;;1.50;1.38;;;24.40;56.90;;;;;;5086410;28;20087;-65
2022/09/07 04:20:43;;;;;;;1.77;1.35;;;24.40;56.90;;;;;;5086338;28;20013;-65
2022/09/07 04:23:09;;;;;;;1.95;1.40;;;24.40;56.90;;;;;;5086229;28;20078;-65
2022/09/07 04:25:35;;;;;;;2.40;1.50;;;24.40;56.90;;;;;;5086213;28;20312;-63
2022/09/07 04:28:01;;;;;;;1.42;1.30;;;24.40;56.90;;;;;;5086471;28;20020;-65
2022/09/07 04:30:26;;;;;;;1.40;1.30;;;24.50;56.90;;;;;;5085481;28;20300;-65
2022/09/07 04:32:52;;;;;;;1.23;1.15;;;24.40;56.90;;;;;;5086107;28;20035;-65
2022/09/07 04:35:18;;;;;;;1.48;1.38;;;24.40;56.90;;;;;;5086076;28;20080;-66
2022/09/07 04:37:44;;;;;;;1.45;1.35;;;24.40;56.90;;;;;;5086028;28;20430;-65
2022/09/07 04:40:11;;;;;;;2.15;1.40;;;24.40;56.90;;;;;;5086195;28;20039;-64
2022/09/07 04:42:37;;;;;;;1.58;1.48;;;24.40;56.90;;;;;;5085864;28;20077;-64
2022/09/07 04:45:03;;;;;;;1.45;1.30;;;24.40;56.90;;;;;;5086169;28;20036;-65
2022/09/07 04:47:30;;;;;;;1.35;1.25;;;24.40;56.80;;;;;;5085794;28;20339;-65
2022/09/07 04:49:56;;;;;;;1.83;1.30;;;24.40;56.90;;;;;;5085800;28;20016;-65
2022/09/07 04:52:22;;;;;;;2.78;1.38;;;24.50;56.90;;;;;;5085736;28;20062;-64
2022/09/07 04:54:51;;;;;;;1.80;1.17;;;24.40;56.80;;;;;;5085694;28;20023;-65
2022/09/07 04:57:23;;;;;;;1.60;1.42;;;24.40;56.80;;;;;;5085672;28;20340;-64
2022/09/07 04:59:49;;;;;;;2.15;1.38;;;24.40;56.80;;;;;;5085631;28;20301;-64
2022/09/07 05:02:15;;;;;;;1.95;1.50;;;24.40;57.40;;;;;;5085497;28;20036;-64
2022/09/07 05:04:40;;;;;;;1.23;1.05;;;24.50;56.80;;;;;;5085378;28;20035;-65
2022/09/07 05:07:06;;;;;;;2.28;1.30;;;24.50;56.80;;;;;;5085469;28;20076;-65
2022/09/07 05:09:32;;;;;;;1.23;1.13;;;24.50;56.80;;;;;;5085443;28;20196;-64
2022/09/07 05:11:58;;;;;;;2.17;1.25;;;24.50;56.90;;;;;;5085943;28;20062;-65
2022/09/07 05:14:23;;;;;;;1.40;1.30;;;24.50;56.80;;;;;;5085343;28;20083;-64
2022/09/07 05:16:49;;;;;;;1.50;1.20;;;24.40;56.80;;;;;;5085316;28;20028;-64
2022/09/07 05:19:15;;;;;;;1.52;1.25;;;24.50;56.80;;;;;;5085263;28;20040;-63
2022/09/07 05:21:41;;;;;;;1.50;1.40;;;24.40;56.80;;;;;;5085167;28;20303;-65
2022/09/07 05:24:06;;;;;;;1.45;1.27;;;24.40;56.80;;;;;;5085134;28;20020;-65
2022/09/07 05:26:34;;;;;;;1.40;1.30;;;24.40;56.80;;;;;;5085154;28;20092;-65
2022/09/07 05:29:02;;;;;;;1.98;1.50;;;24.40;56.80;;;;;;5085081;28;20364;-63
2022/09/07 05:31:29;;;;;;;1.83;1.45;;;24.40;56.80;;;;;;5085057;28;20308;-63
2022/09/07 05:33:56;;;;;;;2.30;1.30;;;24.50;56.80;;;;;;5084989;28;20046;-64
2022/09/07 05:36:26;;;;;;;1.38;1.27;;;24.40;56.80;;;;;;5084947;28;20024;-64
2022/09/07 05:38:54;;;;;;;1.38;1.05;;;24.50;56.80;;;;;;5084911;28;20024;-63
2022/09/07 05:41:23;;;;;;;1.25;1.15;;;24.40;56.80;;;;;;5084809;28;20027;-64
2022/09/07 05:43:50;;;;;;;1.92;1.83;;;24.40;56.80;;;;;;5083678;28;20181;-63
2022/09/07 05:46:16;;;;;;;1.73;1.17;;;24.40;56.80;;;;;;5084977;28;20016;-64
2022/09/07 05:48:43;;;;;;;1.23;1.13;;;24.40;56.80;;;;;;5084668;28;20016;-64
2022/09/07 05:51:10;;;;;;;1.40;1.30;;;24.40;56.80;;;;;;5084630;28;20009;-64
2022/09/07 05:53:37;;;;;;;1.40;1.25;;;24.50;56.80;;;;;;5084508;28;20027;-64
2022/09/07 05:56:04;;;;;;;1.43;1.27;;;24.50;56.80;;;;;;5084484;28;20043;-63
2022/09/07 05:58:31;;;;;;;2.65;1.45;;;24.50;56.80;;;;;;5084445;28;20252;-64
2022/09/07 06:01:04;;;;;;;1.60;1.30;;;24.50;56.80;;;;;;5084711;28;20084;-62
2022/09/07 06:03:31;;;;;;;1.35;1.10;;;24.40;56.80;;;;;;5084269;28;20023;-64
2022/09/07 06:06:05;;;;;;;22.08;3.58;;;24.50;56.80;;;;;;5084188;28;20209;-64
2022/09/07 06:08:32;;;;;;;6.57;3.35;;;24.40;56.00;;;;;;5084213;28;20084;-64
2022/09/07 06:11:03;;;;;;;18.65;3.50;;;24.10;56.30;;;;;;5084221;28;20020;-64
2022/09/07 06:13:29;;;;;;;40.03;5.57;;;23.90;58.50;;;;;;5084158;28;20029;-64
2022/09/07 06:16:00;;;;;;;13.35;3.42;;;23.80;59.60;;;;;;5084075;28;20414;-63
2022/09/07 06:18:30;;;;;;;16.23;3.95;;;23.60;60.60;;;;;;5084063;28;20024;-64
2022/09/07 06:21:10;;;;;;;4.88;3.05;;;23.50;60.70;;;;;;5083801;28;20324;-64
2022/09/07 06:23:37;;;;;;;6.40;2.92;;;23.50;59.80;;;;;;5082830;28;20073;-62
2022/09/07 06:26:03;;;;;;;23.63;5.38;;;23.50;58.80;;;;;;5083950;28;20009;-62
2022/09/07 06:28:37;;;;;;;16.48;3.72;;;23.60;58.90;;;;;;5084132;28;20177;-65
2022/09/07 06:31:08;;;;;;;11.48;3.65;;;23.60;58.40;;;;;;5083923;28;20021;-63
2022/09/07 06:33:34;;;;;;;48.70;6.72;;;23.60;58.60;;;;;;5084121;28;20062;-63
2022/09/07 06:36:10;;;;;;;26.38;5.22;;;23.70;58.30;;;;;;5083798;28;20046;-64
2022/09/07 06:38:37;;;;;;;14.90;3.58;;;23.60;58.40;;;;;;5084074;28;20043;-65
2022/09/07 06:41:05;;;;;;;15.25;3.75;;;23.60;58.40;;;;;;5083658;28;20042;-65
2022/09/07 06:43:31;;;;;;;14.70;3.25;;;23.60;58.50;;;;;;5083592;28;20020;-64
2022/09/07 06:45:57;;;;;;;5.28;3.03;;;23.60;58.30;;;;;;5083645;28;20281;-64
2022/09/07 06:48:24;;;;;;;20.58;4.38;;;23.60;58.60;;;;;;5083623;28;20079;-64
2022/09/07 06:51:10;;;;;;;7.28;3.50;;;23.60;58.60;;;;;;5083506;28;20050;-64
2022/09/07 06:53:37;;;;;;;4.30;3.00;;;23.60;58.10;;;;;;5083282;28;20032;-63
2022/09/07 06:56:08;;;;;;;5.88;2.92;;;23.60;58.30;;;;;;5083580;28;20189;-63
2022/09/07 06:58:34;;;;;;;4.55;2.90;;;23.70;57.80;;;;;;5083432;28;20083;-64
2022/09/07 07:01:06;;;;;;;5.25;3.17;;;23.70;57.60;;;;;;5083102;28;20020;-63
2022/09/07 07:03:32;;;;;;;8.77;3.60;;;23.70;58.20;;;;;;5083869;28;20052;-64
2022/09/07 07:05:59;;;;;;;6.23;3.30;;;23.60;58.50;;;;;;5083459;28;20328;-63
2022/09/07 07:08:25;;;;;;;9.25;3.55;;;23.70;57.90;;;;;;5083470;28;20024;-63
2022/09/07 07:10:51;;;;;;;11.98;3.88;;;23.70;57.40;;;;;;5083418;28;20024;-64
2022/09/07 07:13:18;;;;;;;49.03;5.90;;;23.70;57.50;;;;;;5083326;28;20083;-63
2022/09/07 07:15:45;;;;;;;9.23;4.03;;;23.70;57.10;;;;;;5083406;28;20020;-64
2022/09/07 07:18:12;;;;;;;7.32;3.90;;;23.70;57.50;;;;;;5083397;28;20229;-64
2022/09/07 07:20:39;;;;;;;9.82;3.67;;;23.70;57.60;;;;;;5083914;28;20089;-64
2022/09/07 07:23:06;;;;;;;7.35;3.63;;;23.70;57.90;;;;;;5083548;28;20031;-63
2022/09/07 07:25:36;;;;;;;18.63;3.55;;;23.80;57.60;;;;;;5083523;28;20035;-65
2022/09/07 07:28:03;;;;;;;19.20;5.13;;;23.80;57.40;;;;;;5083559;28;20017;-63
2022/09/07 07:30:29;;;;;;;20.92;3.95;;;23.80;57.20;;;;;;5083237;28;20020;-63
2022/09/07 07:32:56;;;;;;;9.32;3.67;;;23.90;57.20;;;;;;5083213;28;20031;-62
2022/09/07 07:35:22;;;;;;;18.80;4.72;;;23.90;57.20;;;;;;5083198;28;20020;-64
2022/09/07 07:37:54;;;;;;;23.60;3.75;;;24.00;57.30;;;;;;5083160;28;20066;-64
2022/09/07 07:40:19;;;;;;;8.18;3.05;;;24.00;57.40;;;;;;5083180;28;20342;-63
2022/09/07 07:42:45;;;;;;;32.88;3.97;;;24.00;57.10;;;;;;5083062;28;20024;-63
2022/09/07 07:45:12;;;;;;;14.25;3.45;;;23.90;56.80;;;;;;5083067;28;20101;-64
2022/09/07 07:47:38;;;;;;;9.43;4.68;;;23.80;57.00;;;;;;5083073;28;20012;-64
2022/09/07 07:50:05;;;;;;;4.72;3.15;;;23.70;57.10;;;;;;5083037;28;20031;-64
2022/09/07 07:52:36;;;;;;;4.38;3.55;;;23.70;57.20;;;;;;5083008;28;20021;-63
2022/09/07 07:55:02;;;;;;;6.35;3.10;;;23.80;57.10;;;;;;5083009;28;20338;-64
2022/09/07 07:57:29;;;;;;;4.57;3.30;;;23.80;57.40;;;;;;5082965;28;20028;-63
2022/09/07 07:59:54;;;;;;;8.38;3.28;;;23.90;57.40;;;;;;5082952;28;20019;-63
2022/09/07 08:02:21;;;;;;;7.47;3.58;;;24.00;57.20;;;;;;5082894;28;20021;-64
2022/09/07 08:04:47;;;;;;;3.97;3.50;;;24.00;57.40;;;;;;5082795;28;20045;-64
2022/09/07 08:07:13;;;;;;;3.75;2.92;;;24.00;57.10;;;;;;5085609;28;20090;-64
2022/09/07 08:09:40;;;;;;;11.20;3.05;;;24.00;57.50;;;;;;5086522;28;20020;-64
2022/09/07 08:12:06;;;;;;;6.57;2.77;;;24.10;57.30;;;;;;5086524;28;20019;-64
2022/09/07 08:14:35;;;;;;;11.75;3.70;;;24.10;57.20;;;;;;5086460;28;20016;-64
2022/09/07 08:17:01;;;;;;;6.28;3.50;;;24.10;57.80;;;;;;5086369;28;20212;-63
2022/09/07 08:19:27;;;;;;;6.97;3.00;;;24.10;57.20;;;;;;5086375;28;20020;-63
2022/09/07 08:21:53;;;;;;;5.07;3.85;;;24.10;57.00;;;;;;5086324;28;20038;-63
2022/09/07 08:24:19;;;;;;;4.85;3.10;;;24.20;57.10;;;;;;5086241;28;20083;-64
2022/09/07 08:26:46;;;;;;;5.25;3.42;;;24.20;57.30;;;;;;5086185;28;20044;-63
2022/09/07 08:29:12;;;;;;;7.10;3.75;;;24.20;57.00;;;;;;5086161;28;20012;-64
2022/09/07 08:31:38;;;;;;;4.82;3.22;;;24.20;57.20;;;;;;5086176;28;20051;-63
2022/09/07 08:34:03;;;;;;;7.55;3.63;;;24.30;57.20;;;;;;5086082;28;20044;-61
2022/09/07 08:36:30;;;;;;;8.23;3.38;;;24.30;58.00;;;;;;5083150;28;20016;-60
2022/09/07 08:38:56;;;;;;;8.48;3.53;;;24.30;57.70;;;;;;5085318;28;20330;-60
2022/09/07 08:41:40;;;;;;;4.55;3.35;;;24.30;57.80;;;;;;5085450;28;20044;-60
2022/09/07 08:44:15;;;;;;;3.58;3.28;;;24.30;57.30;;;;;;5086243;28;20020;-60
2022/09/07 08:47:11;;;;;;;6.78;3.85;;;24.40;57.40;;;;;;5085764;28;20051;-59
2022/09/07 08:49:42;;;;;;;6.88;3.95;;;24.40;57.70;;;;;;5085676;28;20083;-60
2022/09/07 08:52:14;;;;;;;8.10;3.40;;;24.40;57.90;;;;;;5085501;28;20208;-59
2022/09/07 08:54:44;;;;;;;7.00;3.95;;;24.40;57.70;;;;;;5085613;28;20117;-60
2022/09/07 08:57:11;;;;;;;4.63;3.40;;;24.40;57.50;;;;;;5085376;28;20251;-60
2022/09/07 08:59:52;;;;;;;9.75;4.25;;;24.40;58.00;;;;;;5085015;28;20040;-59
2022/09/07 09:02:18;;;;;;;6.05;3.92;;;24.50;58.40;;;;;;5084813;28;20028;-59
2022/09/07 09:04:43;;;;;;;6.13;4.22;;;24.50;58.00;;;;;;5084510;28;20032;-58
2022/09/07 09:07:37;;;;;;;14.00;4.88;;;24.50;57.70;;;;;;5085005;28;20025;-58
2022/09/07 09:10:24;;;;;;;4.95;3.45;;;24.50;58.30;;;;;;5085281;28;20023;-58
2022/09/07 09:13:02;;;;;;;7.78;3.33;;;24.50;57.70;;;;;;5085259;28;20023;-60
2022/09/07 09:15:58;;;;;;;13.00;3.80;;;24.50;57.80;;;;;;5085197;28;20016;-59
2022/09/07 09:19:04;;;;;;;4.70;3.67;;;24.60;57.60;;;;;;5084775;28;20066;-59
2022/09/07 09:21:30;;;;;;;7.45;4.55;;;24.60;57.70;;;;;;5085369;28;20021;-61
2022/09/07 09:24:06;;;;;;;5.38;4.00;;;24.60;57.80;;;;;;5084851;28;20204;-59
2022/09/07 09:26:34;;;;;;;6.10;4.05;;;24.60;57.70;;;;;;5084999;28;20020;-60
2022/09/07 09:29:18;;;;;;;6.00;4.03;;;24.60;57.90;;;;;;5084769;28;20328;-60
2022/09/07 09:31:45;;;;;;;9.55;5.07;;;24.70;58.60;;;;;;5084898;28;20012;-59
2022/09/07 09:34:12;;;;;;;11.55;4.25;;;24.70;58.50;;;;;;5084854;28;20029;-60
2022/09/07 09:36:43;;;;;;;6.13;4.53;;;24.70;58.10;;;;;;5084966;28;20131;-61
2022/09/07 09:39:25;;;;;;;7.50;4.10;;;24.70;58.00;;;;;;5084467;28;20021;-60
2022/09/07 09:41:55;;;;;;;9.32;3.97;;;24.80;58.40;;;;;;5084142;28;20311;-60
2022/09/07 09:44:22;;;;;;;6.18;5.38;;;24.80;58.40;;;;;;5084426;28;20215;-60
2022/09/07 09:46:53;;;;;;;8.93;4.43;;;24.80;58.60;;;;;;5083982;28;20028;-59
2022/09/07 09:49:25;;;;;;;11.10;4.00;;;24.80;58.40;;;;;;5084302;28;20316;-60
2022/09/07 09:51:57;;;;;;;6.72;4.57;;;24.80;58.90;;;;;;5084396;28;20162;-60
2022/09/07 09:54:32;;;;;;;11.30;4.63;;;24.90;58.80;;;;;;5083879;28;20280;-59
2022/09/07 09:56:59;;;;;;;8.70;4.43;;;24.90;58.60;;;;;;5084314;28;20020;-60
2022/09/07 09:59:30;;;;;;;6.57;4.97;;;24.90;58.90;;;;;;5084185;28;20093;-60
2022/09/07 10:01:57;;;;;;;6.60;4.72;;;24.90;58.50;;;;;;5084266;28;20070;-60
2022/09/07 10:04:22;;;;;;;6.35;4.10;;;24.80;58.50;;;;;;5083530;28;20328;-60
2022/09/07 10:07:25;;;;;;;12.18;4.78;;;24.80;59.50;;;;;;5084130;28;20073;-60
2022/09/07 10:09:52;;;;;;;6.60;5.25;;;24.80;59.50;;;;;;5079168;28;20028;-61
2022/09/07 10:12:31;;;;;;;11.00;4.60;;;24.80;59.10;;;;;;5084121;28;20012;-61
2022/09/07 10:15:00;;;;;;;7.65;4.93;;;24.90;58.90;;;;;;5084060;28;20020;-61
2022/09/07 10:17:46;;;;;;;6.15;4.43;;;24.90;59.50;;;;;;5084232;28;20020;-61
2022/09/07 10:20:14;;;;;;;23.58;5.72;;;24.90;59.60;;;;;;5083818;28;20212;-61
2022/09/07 10:22:44;;;;;;;11.88;4.80;;;25.00;59.80;;;;;;5083294;28;20312;-61
2022/09/07 10:25:31;;;;;;;15.98;4.82;;;25.00;59.60;;;;;;5063798;28;20312;-60
2022/09/07 10:28:15;;;;;;;7.95;5.32;;;25.00;59.70;;;;;;5063524;28;20036;-59
2022/09/07 10:31:00;;;;;;;6.80;5.20;;;25.00;59.50;;;;;;5063469;28;20012;-62
2022/09/07 10:34:08;;;;;;;10.20;5.00;;;25.10;59.90;;;;;;5063641;28;20028;-60
2022/09/07 10:36:53;;;;;;;9.10;5.13;;;25.10;59.60;;;;;;5063001;28;20041;-58
2022/09/07 10:39:30;;;;;;;7.45;5.03;;;25.10;60.00;;;;;;5063418;28;20083;-58
2022/09/07 10:42:08;;;;;;;10.73;5.38;;;25.10;59.90;;;;;;5063576;28;20251;-60
2022/09/07 11:07:52;;;;;;;10.40;6.20;;;25.20;59.70;;;;;;5112379;27;20374;-62
2022/09/07 11:10:28;;;;;;;9.85;5.82;;;25.50;58.70;;;;;;5096967;28;20056;-59
2022/09/07 11:12:59;;;;;;;7.88;5.80;;;25.40;58.90;;;;;;5096663;28;20069;-59
2022/09/07 11:15:31;;;;;;;8.23;6.40;;;25.40;59.00;;;;;;5092374;28;20028;-60
2022/09/07 11:18:07;;;;;;;12.05;5.65;;;25.40;58.70;;;;;;5089759;28;20302;-60
2022/09/07 11:20:44;;;;;;;9.63;6.93;;;25.40;61.10;;;;;;5094969;28;20091;-60
2022/09/07 11:23:31;;;;;;;14.90;6.03;;;25.50;60.30;;;;;;5095308;28;20335;-61
2022/09/07 11:26:15;;;;;;;17.50;7.05;;;25.60;59.70;;;;;;5091470;28;20066;-60
2022/09/07 11:28:59;;;;;;;15.90;6.55;;;25.60;60.00;;;;;;5099953;28;20088;-60
2022/09/07 11:31:45;;;;;;;9.65;5.85;;;25.70;60.60;;;;;;5099232;28;20339;-59
2022/09/07 11:34:27;;;;;;;10.85;6.22;;;25.70;59.40;;;;;;5094141;28;20020;-60
2022/09/07 11:36:56;;;;;;;7.00;5.95;;;25.70;58.20;;;;;;5102407;28;20020;-60
2022/09/07 11:40:05;;;;;;;7.82;6.00;;;25.70;58.30;;;;;;5090045;28;20009;-59
2022/09/07 11:42:37;;;;;;;7.63;6.03;;;25.70;58.30;;;;;;5076017;28;20028;-60
2022/09/07 11:45:14;;;;;;;8.73;5.82;;;25.70;58.10;;;;;;5100040;28;20047;-60
2022/09/07 11:48:12;;;;;;;19.43;6.83;;;25.70;57.90;;;;;;5099828;28;20035;-61
2022/09/07 11:50:45;;;;;;;16.80;6.78;;;25.70;58.10;;;;;;5084536;28;20073;-61
2022/09/07 11:53:18;;;;;;;9.48;5.78;;;25.70;58.20;;;;;;5089349;28;20024;-58
2022/09/07 11:55:49;;;;;;;22.40;5.85;;;25.70;58.20;;;;;;5077792;28;20444;-59
2022/09/07 11:58:29;;;;;;;14.40;7.22;;;25.70;58.20;;;;;;5078417;28;20483;-62
2022/09/07 12:01:20;;;;;;;9.20;7.05;;;25.70;57.90;;;;;;5079029;28;20081;-62
2022/09/07 12:04:23;;;;;;;10.88;6.40;;;25.70;58.10;;;;;;5078239;28;20021;-61
2022/09/07 12:07:14;;;;;;;13.00;7.13;;;25.70;58.10;;;;;;5077348;28;20048;-60
2022/09/07 12:10:18;;;;;;;12.43;7.00;;;25.70;58.40;;;;;;5093748;28;20337;-60
2022/09/07 12:13:12;;;;;;;11.55;7.20;;;25.70;57.90;;;;;;5004447;28;20036;-61
2022/09/07 12:15:51;;;;;;;10.07;7.00;;;25.80;57.70;;;;;;5104823;28;20059;-61
2022/09/07 12:18:44;;;;;;;11.07;7.45;;;25.80;57.30;;;;;;5106288;28;20046;-61
2022/09/07 12:21:34;;;;;;;8.07;6.72;;;25.90;57.50;;;;;;5106200;28;20027;-61
2022/09/07 12:23:59;;;;;;;10.23;7.32;;;25.90;57.30;;;;;;5105970;28;20024;-62
2022/09/07 12:26:37;;;;;;;10.60;7.22;;;25.90;57.30;;;;;;5085663;28;20026;-62
2022/09/07 12:29:18;;;;;;;15.88;7.30;;;25.90;56.80;;;;;;5085264;28;20048;-61
2022/09/07 12:31:45;;;;;;;8.00;6.72;;;25.90;57.10;;;;;;5085722;28;20024;-60
2022/09/07 12:34:34;;;;;;;11.48;7.03;;;25.90;56.80;;;;;;5085572;28;20024;-61
2022/09/07 12:37:04;;;;;;;14.10;7.78;;;25.90;56.80;;;;;;5073900;28;20284;-58
2022/09/07 12:39:32;;;;;;;10.63;7.72;;;25.90;57.00;;;;;;5084908;28;20051;-62
2022/09/07 12:42:06;;;;;;;9.23;7.20;;;25.90;56.20;;;;;;5078139;28;20231;-60
2022/09/07 12:44:36;;;;;;;10.63;7.07;;;25.90;56.10;;;;;;5084828;28;20020;-60
2022/09/07 12:47:09;;;;;;;8.25;7.18;;;25.90;56.20;;;;;;5084249;28;20304;-60
2022/09/07 12:50:05;;;;;;;7.90;7.10;;;26.00;56.00;;;;;;5084417;28;20031;-62
2022/09/07 12:52:47;;;;;;;8.23;7.07;;;26.00;56.00;;;;;;5085307;28;20080;-59
2022/09/07 12:55:18;;;;;;;8.32;7.10;;;26.00;55.90;;;;;;5085094;28;20079;-63
2022/09/07 12:57:50;;;;;;;7.78;6.97;;;26.10;56.20;;;;;;5085154;28;20017;-61
2022/09/07 13:00:16;;;;;;;7.63;6.82;;;26.10;55.90;;;;;;5085160;28;20234;-61
2022/09/07 13:03:00;;;;;;;8.45;7.22;;;26.20;56.00;;;;;;5085098;28;20012;-61
2022/09/07 13:06:04;;;;;;;11.05;7.55;;;26.20;55.90;;;;;;5084876;28;20016;-59
2022/09/07 13:08:51;;;;;;;10.10;7.18;;;26.30;55.60;;;;;;5076943;28;20075;-60
2022/09/07 13:11:20;;;;;;;;;;;26.30;55.50;;;;;;5067192;28;20066;-60
2022/09/07 13:14:03;;;;;;;9.98;7.75;;;26.40;55.80;;;;;;5084746;28;20095;-61
2022/09/07 13:16:32;;;;;;;7.60;6.80;;;26.40;55.60;;;;;;5084835;28;20084;-61
2022/09/07 13:19:00;;;;;;;9.80;6.82;;;26.50;55.40;;;;;;5083770;28;20020;-60
2022/09/07 13:21:30;;;;;;;9.15;7.10;;;26.60;55.20;;;;;;5084683;28;20028;-61
2022/09/07 13:24:20;;;;;;;8.77;6.85;;;26.70;54.80;;;;;;5084519;28;20023;-62
2022/09/07 13:27:02;;;;;;;7.50;6.65;;;26.80;54.50;;;;;;5074469;28;20024;-61
2022/09/07 13:29:36;;;;;;;7.53;6.75;;;26.90;54.30;;;;;;5084421;28;20192;-61
2022/09/07 13:32:21;;;;;;;9.57;6.35;;;26.90;54.00;;;;;;5084521;28;20083;-62
2022/09/07 13:35:08;;;;;;;7.40;6.70;;;27.00;53.90;;;;;;5084163;28;20012;-62
2022/09/07 13:37:44;;;;;;;12.73;6.72;;;27.10;53.50;;;;;;5075458;28;20021;-61